Time;durP1;ratioP1;P1;durP2;ratioP2;P2;SDS_P1;SDS_P2;PMS_P1;PMS_P2;Temp;Humidity;BMP_temperature;BMP_pressure;BME280_temperature;BME280_humidity;BME280_pressure;Samples;Min_cycle;Max_cycle;Signal;HPM_P1;HPM_P2
2024/01/01 00:01:10;;;;;;;332.90;153.30;;;;;;;;;;10113662;29;20060;-78
2024/01/01 00:06:11;;;;;;;316.23;155.23;;;;;;;;;;10128934;29;20409;-79
2024/01/01 00:11:12;;;;;;;385.23;192.93;;;;;;;;;;10123499;29;20048;-79
2024/01/01 00:16:14;;;;;;;419.17;189.33;;;;;;;;;;10124998;29;20048;-78
2024/01/01 00:21:15;;;;;;;317.20;150.83;;;;;;;;;;10125820;29;20043;-82
2024/01/01 00:26:17;;;;;;;365.93;172.77;;;;;;;;;;10128010;29;20397;-78
2024/01/01 00:31:18;;;;;;;377.23;179.20;;;;;;;;;;10126679;29;20466;-79
2024/01/01 00:36:19;;;;;;;397.47;185.67;;;;;;;;;;10126639;29;20063;-79
2024/01/01 00:41:20;;;;;;;342.87;164.97;;;;;;;;;;10125390;29;20144;-80
2024/01/01 00:46:21;;;;;;;355.80;173.37;;;;;;;;;;10115281;29;20033;-80
2024/01/01 00:51:23;;;;;;;390.40;194.23;;;;;;;;;;10118065;29;20049;-80
2024/01/01 00:56:24;;;;;;;412.97;203.87;;;;;;;;;;10127515;29;20515;-81
2024/01/01 01:01:25;;;;;;;556.07;238.97;;;;;;;;;;10121319;29;20037;-81
2024/01/01 01:06:26;;;;;;;496.90;227.40;;;;;;;;;;10124674;29;20032;-83
2024/01/01 01:11:27;;;;;;;428.60;191.80;;;;;;;;;;10119152;29;20044;-80
2024/01/01 01:16:28;;;;;;;563.57;252.07;;;;;;;;;;10120067;29;20048;-80
2024/01/01 01:21:29;;;;;;;563.53;252.90;;;;;;;;;;10120392;29;20115;-79
2024/01/01 01:26:36;;;;;;;575.57;244.43;;;;;;;;;;10109637;29;20197;-81
2024/01/01 01:31:37;;;;;;;585.33;253.37;;;;;;;;;;10088246;29;20480;-79
2024/01/01 01:36:39;;;;;;;395.93;183.83;;;;;;;;;;10118046;29;20039;-79
2024/01/01 01:41:40;;;;;;;560.60;225.60;;;;;;;;;;10116084;29;20049;-79
2024/01/01 01:46:41;;;;;;;359.80;176.23;;;;;;;;;;10119609;29;20144;-80
2024/01/01 01:51:47;;;;;;;608.73;240.40;;;;;;;;;;10116501;29;20060;-79
2024/01/01 01:56:48;;;;;;;560.45;236.25;;;;;;;;;;10115493;29;20115;-79
2024/01/01 02:01:50;;;;;;;610.47;257.47;;;;;;;;;;10120143;29;20078;-79
2024/01/01 02:06:51;;;;;;;628.77;264.47;;;;;;;;;;10124843;29;20043;-81
2024/01/01 02:11:52;;;;;;;587.10;259.73;;;;;;;;;;10125454;29;20404;-80
2024/01/01 02:16:53;;;;;;;402.73;210.60;;;;;;;;;;10111602;29;20028;-80
2024/01/01 02:21:55;;;;;;;691.77;268.77;;;;;;;;;;10116771;29;20084;-82
2024/01/01 02:26:56;;;;;;;488.17;221.43;;;;;;;;;;10115850;29;20025;-80
2024/01/01 02:31:57;;;;;;;334.90;163.13;;;;;;;;;;10121223;29;20051;-80
2024/01/01 02:36:59;;;;;;;589.47;227.40;;;;;;;;;;10113043;29;20039;-82
2024/01/01 02:42:00;;;;;;;388.70;179.00;;;;;;;;;;10122256;29;20033;-80
2024/01/01 02:47:01;;;;;;;393.47;173.57;;;;;;;;;;10108984;29;20092;-80
2024/01/01 02:52:03;;;;;;;434.17;177.73;;;;;;;;;;10123032;29;20055;-79
2024/01/01 02:57:12;;;;;;;385.73;159.90;;;;;;;;;;10124208;29;20083;-80
2024/01/01 03:02:15;;;;;;;403.70;168.67;;;;;;;;;;10120920;29;20055;-79
2024/01/01 03:07:16;;;;;;;435.50;184.07;;;;;;;;;;10119709;29;20039;-81
2024/01/01 03:12:24;;;;;;;330.20;132.23;;;;;;;;;;10115675;29;20041;-85
2024/01/01 03:17:25;;;;;;;305.17;132.80;;;;;;;;;;10123452;29;20125;-80
2024/01/01 03:22:28;;;;;;;303.10;123.17;;;;;;;;;;10113203;29;20763;-83
2024/01/01 03:27:29;;;;;;;316.83;130.30;;;;;;;;;;10127139;29;20035;-83
2024/01/01 03:32:30;;;;;;;348.53;129.73;;;;;;;;;;10115191;29;20200;-80
2024/01/01 03:37:31;;;;;;;201.83;86.57;;;;;;;;;;10120967;29;20036;-80
2024/01/01 03:42:32;;;;;;;105.73;46.57;;;;;;;;;;10115416;29;20045;-79
2024/01/01 03:47:33;;;;;;;111.13;45.07;;;;;;;;;;10116367;29;20057;-81
2024/01/01 03:52:34;;;;;;;103.03;46.60;;;;;;;;;;10128953;29;20056;-79
2024/01/01 03:57:35;;;;;;;131.37;66.23;;;;;;;;;;10113213;29;20386;-83
2024/01/01 04:02:36;;;;;;;90.07;40.57;;;;;;;;;;10121037;29;20067;-82
2024/01/01 04:07:38;;;;;;;72.87;34.63;;;;;;;;;;10090850;29;20040;-80
2024/01/01 04:12:39;;;;;;;79.73;37.70;;;;;;;;;;10119308;29;20052;-80
2024/01/01 04:17:40;;;;;;;71.27;32.37;;;;;;;;;;10119397;29;20040;-80
2024/01/01 04:22:41;;;;;;;57.40;28.87;;;;;;;;;;10098007;29;20515;-83
2024/01/01 04:27:42;;;;;;;58.03;28.30;;;;;;;;;;10123769;29;20040;-80
2024/01/01 04:32:43;;;;;;;90.33;46.47;;;;;;;;;;10129609;29;20493;-80
2024/01/01 04:37:44;;;;;;;81.03;40.10;;;;;;;;;;10109631;29;20043;-80
2024/01/01 04:42:48;;;;;;;102.43;49.97;;;;;;;;;;10102750;29;20060;-80
2024/01/01 04:47:49;;;;;;;73.23;35.40;;;;;;;;;;10108768;29;20083;-79
2024/01/01 04:52:50;;;;;;;69.67;35.40;;;;;;;;;;10128200;29;20056;-80
2024/01/01 04:57:51;;;;;;;61.97;29.20;;;;;;;;;;10125624;29;20044;-83
2024/01/01 05:02:55;;;;;;;45.60;22.50;;;;;;;;;;10113144;29;20392;-80
2024/01/01 05:07:56;;;;;;;54.83;26.97;;;;;;;;;;10102106;29;20143;-80
2024/01/01 05:12:57;;;;;;;42.90;21.47;;;;;;;;;;10112092;29;20044;-80
2024/01/01 05:17:59;;;;;;;39.97;20.07;;;;;;;;;;10118571;29;20024;-80
2024/01/01 05:23:00;;;;;;;39.23;19.87;;;;;;;;;;10116567;29;20493;-80
2024/01/01 05:28:01;;;;;;;39.97;19.87;;;;;;;;;;10128747;29;20044;-82
2024/01/01 05:33:02;;;;;;;34.13;17.03;;;;;;;;;;10116025;29;20517;-81
2024/01/01 05:38:03;;;;;;;31.00;16.17;;;;;;;;;;10115122;29;20037;-82
2024/01/01 05:43:04;;;;;;;33.53;16.67;;;;;;;;;;10121010;29;20039;-82
2024/01/01 05:48:05;;;;;;;35.17;17.07;;;;;;;;;;10108438;29;20053;-82
2024/01/01 05:53:07;;;;;;;35.47;17.27;;;;;;;;;;10115098;29;20478;-81
2024/01/01 05:58:09;;;;;;;36.40;17.27;;;;;;;;;;10122783;29;20046;-83
2024/01/01 06:03:10;;;;;;;38.33;18.00;;;;;;;;;;10124128;29;20040;-82
2024/01/01 06:08:11;;;;;;;39.00;18.43;;;;;;;;;;10123723;29;20047;-80
2024/01/01 06:13:12;;;;;;;38.53;17.47;;;;;;;;;;10122143;29;20434;-80
2024/01/01 06:18:21;;;;;;;39.57;17.60;;;;;;;;;;10106095;29;20037;-84
2024/01/01 06:23:22;;;;;;;34.90;16.53;;;;;;;;;;10122132;29;20033;-80
2024/01/01 06:28:25;;;;;;;30.20;15.00;;;;;;;;;;10124537;29;20044;-82
2024/01/01 06:33:26;;;;;;;29.23;13.83;;;;;;;;;;10120249;29;20465;-80
2024/01/01 06:38:27;;;;;;;33.87;15.50;;;;;;;;;;10109053;29;20028;-83
2024/01/01 06:43:28;;;;;;;33.93;15.53;;;;;;;;;;10118194;29;20137;-83
2024/01/01 06:48:29;;;;;;;30.30;14.40;;;;;;;;;;10094926;29;20077;-81
2024/01/01 06:53:30;;;;;;;36.37;15.10;;;;;;;;;;10078855;29;20850;-80
2024/01/01 06:58:32;;;;;;;33.60;14.53;;;;;;;;;;10074256;29;20041;-80
2024/01/01 07:03:33;;;;;;;41.33;15.33;;;;;;;;;;10085732;29;20037;-83
2024/01/01 07:08:34;;;;;;;38.33;17.10;;;;;;;;;;10050825;29;20576;-81
2024/01/01 07:13:35;;;;;;;37.73;15.47;;;;;;;;;;10082178;29;20041;-87
2024/01/01 07:18:36;;;;;;;42.57;21.60;;;;;;;;;;10078542;29;20149;-81
2024/01/01 07:23:37;;;;;;;42.97;21.30;;;;;;;;;;10069749;29;20074;-81
2024/01/01 07:28:39;;;;;;;47.20;22.10;;;;;;;;;;10075580;29;20059;-86
2024/01/01 07:33:40;;;;;;;68.97;28.43;;;;;;;;;;10054208;29;20041;-81
2024/01/01 07:38:42;;;;;;;82.00;36.23;;;;;;;;;;10088495;29;20060;-82
2024/01/01 07:43:43;;;;;;;77.83;33.80;;;;;;;;;;10083589;29;20040;-83
2024/01/01 07:48:44;;;;;;;67.03;28.23;;;;;;;;;;10089260;29;20099;-82
2024/01/01 07:53:45;;;;;;;60.43;26.43;;;;;;;;;;10128426;29;20058;-82
2024/01/01 07:58:46;;;;;;;42.60;18.07;;;;;;;;;;10112757;29;20032;-85
2024/01/01 08:03:47;;;;;;;45.17;20.20;;;;;;;;;;10116249;29;20044;-82
2024/01/01 08:08:48;;;;;;;44.00;18.13;;;;;;;;;;10104477;29;20131;-82
2024/01/01 08:13:49;;;;;;;42.67;20.07;;;;;;;;;;10103796;29;20039;-83
2024/01/01 08:18:52;;;;;;;29.33;12.03;;;;;;;;;;10127488;29;20037;-82
2024/01/01 08:23:53;;;;;;;30.17;12.27;;;;;;;;;;10118160;29;20029;-82
2024/01/01 08:28:54;;;;;;;29.23;12.37;;;;;;;;;;10130855;29;20056;-81
2024/01/01 08:33:56;;;;;;;23.23;9.73;;;;;;;;;;10112784;29;20045;-83
2024/01/01 08:38:57;;;;;;;42.77;16.57;;;;;;;;;;10115516;29;20051;-82
2024/01/01 08:43:58;;;;;;;28.47;11.87;;;;;;;;;;10114833;29;20041;-83
2024/01/01 08:48:59;;;;;;;18.10;8.90;;;;;;;;;;10102202;29;20117;-84
2024/01/01 08:54:01;;;;;;;22.93;10.13;;;;;;;;;;10105028;29;20576;-81
2024/01/01 08:59:09;;;;;;;29.20;12.20;;;;;;;;;;10113857;29;20044;-81
2024/01/01 09:04:10;;;;;;;36.93;16.87;;;;;;;;;;10122704;29;20024;-84
2024/01/01 09:09:11;;;;;;;25.93;13.17;;;;;;;;;;10130492;29;20474;-84
2024/01/01 09:14:12;;;;;;;22.53;8.93;;;;;;;;;;10108934;29;20033;-84
2024/01/01 09:19:15;;;;;;;43.97;15.80;;;;;;;;;;10126374;29;20048;-83
2024/01/01 09:24:16;;;;;;;27.13;11.23;;;;;;;;;;10108040;29;20072;-84
2024/01/01 09:29:17;;;;;;;44.63;18.43;;;;;;;;;;10124338;29;20049;-82
2024/01/01 09:34:25;;;;;;;56.87;25.17;;;;;;;;;;10127016;29;20040;-83
2024/01/01 09:39:26;;;;;;;28.83;11.77;;;;;;;;;;10116112;29;20032;-86
2024/01/01 09:44:27;;;;;;;58.47;21.87;;;;;;;;;;10127616;29;20040;-83
2024/01/01 09:49:28;;;;;;;51.23;21.80;;;;;;;;;;10108971;29;20064;-83
2024/01/01 09:54:29;;;;;;;32.47;15.43;;;;;;;;;;10127626;29;20044;-82
2024/01/01 09:59:37;;;;;;;27.83;10.87;;;;;;;;;;10118641;29;20465;-84
2024/01/01 10:04:38;;;;;;;55.77;21.63;;;;;;;;;;10124845;29;20037;-84
2024/01/01 10:09:48;;;;;;;49.20;19.87;;;;;;;;;;10117780;29;20143;-83
2024/01/01 10:14:50;;;;;;;50.00;20.97;;;;;;;;;;10111797;29;20037;-83
2024/01/01 10:20:01;;;;;;;64.37;27.93;;;;;;;;;;10111946;29;20053;-82
2024/01/01 10:25:13;;;;;;;56.27;25.87;;;;;;;;;;10122283;29;20060;-84
2024/01/01 10:30:14;;;;;;;37.00;16.40;;;;;;;;;;10121260;29;20464;-83
2024/01/01 10:35:16;;;;;;;33.37;15.33;;;;;;;;;;10093694;29;20047;-82
2024/01/01 10:40:17;;;;;;;32.50;13.97;;;;;;;;;;10110239;29;20033;-84
2024/01/01 10:45:18;;;;;;;33.63;17.17;;;;;;;;;;10112515;29;20076;-83
2024/01/01 10:50:34;;;;;;;80.23;38.10;;;;;;;;;;10102416;29;20399;-82
2024/01/01 10:55:55;;;;;;;96.80;42.53;;;;;;;;;;10114423;29;20033;-85
2024/01/01 11:01:05;;;;;;;97.57;45.50;;;;;;;;;;10098820;29;20120;-82
2024/01/01 11:06:21;;;;;;;82.37;37.73;;;;;;;;;;10112328;29;20119;-84
2024/01/01 11:11:30;;;;;;;82.23;40.57;;;;;;;;;;10113006;29;20033;-83
2024/01/01 11:16:49;;;;;;;77.67;39.27;;;;;;;;;;10098197;29;20484;-84
2024/01/01 11:21:50;;;;;;;46.50;21.90;;;;;;;;;;10105184;29;20040;-82
2024/01/01 11:26:51;;;;;;;44.17;21.87;;;;;;;;;;10123723;29;20043;-83
2024/01/01 11:32:02;;;;;;;45.73;20.73;;;;;;;;;;10123738;29;20068;-83
2024/01/01 11:37:03;;;;;;;42.03;21.53;;;;;;;;;;10110601;29;20401;-85
2024/01/01 11:42:04;;;;;;;69.27;29.20;;;;;;;;;;10101976;29;20029;-84
2024/01/01 11:47:05;;;;;;;63.57;28.93;;;;;;;;;;10108080;29;20063;-85
2024/01/01 11:52:17;;;;;;;65.47;29.93;;;;;;;;;;10113806;29;20065;-82
2024/01/01 11:57:18;;;;;;;61.23;29.43;;;;;;;;;;10129755;29;20035;-82
2024/01/01 12:02:19;;;;;;;64.63;29.53;;;;;;;;;;10122210;29;20038;-82
2024/01/01 12:07:28;;;;;;;66.10;32.07;;;;;;;;;;10126119;29;20040;-81
2024/01/01 12:12:29;;;;;;;77.60;35.03;;;;;;;;;;10127771;29;20397;-81
2024/01/01 12:17:30;;;;;;;70.43;34.07;;;;;;;;;;10121933;29;20051;-85
2024/01/01 12:22:32;;;;;;;62.93;30.87;;;;;;;;;;10122802;29;20033;-81
2024/01/01 12:27:33;;;;;;;77.20;34.77;;;;;;;;;;10127746;29;20481;-82
2024/01/01 12:32:34;;;;;;;68.10;32.23;;;;;;;;;;10110679;29;20044;-80
2024/01/01 12:37:35;;;;;;;59.53;30.10;;;;;;;;;;10128726;29;20049;-83
2024/01/01 12:42:36;;;;;;;53.67;25.93;;;;;;;;;;10115528;29;20447;-80
2024/01/01 12:47:37;;;;;;;55.63;28.27;;;;;;;;;;10109000;29;20045;-80
2024/01/01 12:52:38;;;;;;;58.03;29.07;;;;;;;;;;10107377;29;20861;-84
2024/01/01 12:57:39;;;;;;;60.37;31.47;;;;;;;;;;10121963;29;20445;-81
2024/01/01 13:02:40;;;;;;;62.37;29.60;;;;;;;;;;10112462;29;20168;-84
2024/01/01 13:07:41;;;;;;;71.93;33.33;;;;;;;;;;10113317;29;20044;-83
2024/01/01 13:12:42;;;;;;;114.00;52.53;;;;;;;;;;10113849;29;20651;-85
2024/01/01 13:17:50;;;;;;;91.93;46.00;;;;;;;;;;10118742;29;20048;-82
2024/01/01 13:22:51;;;;;;;93.03;45.63;;;;;;;;;;10119543;29;20025;-82
2024/01/01 13:27:52;;;;;;;80.67;42.07;;;;;;;;;;10117169;29;20057;-83
2024/01/01 13:32:53;;;;;;;81.43;40.37;;;;;;;;;;10108129;29;20469;-81
2024/01/01 13:37:55;;;;;;;183.93;87.23;;;;;;;;;;10113635;29;20037;-83
2024/01/01 13:42:56;;;;;;;118.60;56.13;;;;;;;;;;10116002;29;20029;-83
2024/01/01 13:47:57;;;;;;;98.53;51.10;;;;;;;;;;10101324;29;20044;-82
2024/01/01 13:53:03;;;;;;;84.63;42.53;;;;;;;;;;10119996;29;20060;-81
2024/01/01 13:58:07;;;;;;;100.38;47.88;;;;;;;;;;10109280;29;20028;-82
2024/01/01 14:03:09;;;;;;;133.67;66.93;;;;;;;;;;10113651;29;20067;-85
2024/01/01 14:08:10;;;;;;;121.73;59.67;;;;;;;;;;10114045;29;20033;-83
2024/01/01 14:13:11;;;;;;;82.73;41.43;;;;;;;;;;10105235;29;20394;-87
2024/01/01 14:18:12;;;;;;;98.93;48.27;;;;;;;;;;10093376;29;20481;-83
2024/01/01 14:23:16;;;;;;;97.87;48.40;;;;;;;;;;10099308;29;20033;-82
2024/01/01 14:28:17;;;;;;;84.43;41.03;;;;;;;;;;10095333;29;20036;-84
2024/01/01 14:33:19;;;;;;;95.63;45.57;;;;;;;;;;10107515;29;20075;-84
2024/01/01 14:38:20;;;;;;;74.70;36.60;;;;;;;;;;10110098;29;20028;-81
2024/01/01 14:43:25;;;;;;;78.90;39.10;;;;;;;;;;10110191;29;20052;-85
2024/01/01 14:54:33;;;;;;;96.80;46.03;;;;;;;;;;10113639;29;20056;-85
2024/01/01 14:59:34;;;;;;;100.67;45.80;;;;;;;;;;10110578;29;20064;-82
2024/01/01 15:04:35;;;;;;;80.50;40.67;;;;;;;;;;10126379;29;20075;-84
2024/01/01 15:09:39;;;;;;;75.73;37.27;;;;;;;;;;10101904;29;20037;-83
2024/01/01 15:14:40;;;;;;;82.97;40.50;;;;;;;;;;10108688;29;20088;-82
2024/01/01 15:19:41;;;;;;;85.97;45.53;;;;;;;;;;10109294;29;20039;-83
2024/01/01 15:24:45;;;;;;;89.67;44.37;;;;;;;;;;10132399;29;20441;-82
2024/01/01 15:29:47;;;;;;;85.90;41.03;;;;;;;;;;10104320;29;20044;-83
2024/01/01 15:34:55;;;;;;;93.50;46.30;;;;;;;;;;10115811;29;20145;-82
2024/01/01 15:40:00;;;;;;;74.87;36.27;;;;;;;;;;10115600;29;20047;-81
2024/01/01 15:45:02;;;;;;;90.88;42.05;;;;;;;;;;10115941;29;20044;-82
2024/01/01 15:50:03;;;;;;;91.93;44.63;;;;;;;;;;10133016;29;20075;-82
2024/01/01 15:55:06;;;;;;;71.63;37.37;;;;;;;;;;10115503;29;20063;-82
2024/01/01 16:00:07;;;;;;;89.33;41.07;;;;;;;;;;10108114;29;20033;-83
2024/01/01 16:05:11;;;;;;;86.90;41.33;;;;;;;;;;10129718;29;20033;-83
2024/01/01 16:10:12;;;;;;;84.57;42.57;;;;;;;;;;10134900;29;20036;-81
2024/01/01 16:15:13;;;;;;;96.70;47.50;;;;;;;;;;10119107;29;20119;-82
2024/01/01 16:20:14;;;;;;;99.97;46.37;;;;;;;;;;10130708;29;20840;-80
2024/01/01 16:25:17;;;;;;;108.37;45.67;;;;;;;;;;10129645;29;20035;-81
2024/01/01 16:30:21;;;;;;;86.80;40.00;;;;;;;;;;10110115;29;20040;-82
2024/01/01 16:35:23;;;;;;;96.67;44.33;;;;;;;;;;10102720;29;20123;-83
2024/01/01 16:40:25;;;;;;;82.73;40.30;;;;;;;;;;10106606;29;20036;-83
2024/01/01 16:45:26;;;;;;;81.93;39.50;;;;;;;;;;10110882;29;20497;-82
2024/01/01 16:50:27;;;;;;;103.30;40.43;;;;;;;;;;10122367;29;20040;-83
2024/01/01 16:55:28;;;;;;;100.70;40.30;;;;;;;;;;10121402;29;20061;-82
2024/01/01 17:00:29;;;;;;;74.40;33.27;;;;;;;;;;10116856;29;20115;-82
2024/01/01 17:05:30;;;;;;;92.40;38.23;;;;;;;;;;10126812;29;20142;-84
2024/01/01 17:10:31;;;;;;;104.67;43.43;;;;;;;;;;10123876;29;20041;-80
2024/01/01 17:15:32;;;;;;;71.77;32.00;;;;;;;;;;10124453;29;20052;-79
2024/01/01 17:20:33;;;;;;;58.80;28.40;;;;;;;;;;10128283;29;20088;-82
2024/01/01 17:25:34;;;;;;;66.97;32.10;;;;;;;;;;10122626;29;20044;-84
2024/01/01 17:30:35;;;;;;;71.53;32.47;;;;;;;;;;10109808;29;20394;-78
2024/01/01 17:35:36;;;;;;;66.47;29.03;;;;;;;;;;10121660;29;20032;-82
2024/01/01 17:40:45;;;;;;;55.10;28.70;;;;;;;;;;10115825;29;20036;-80
2024/01/01 17:45:46;;;;;;;65.10;30.40;;;;;;;;;;10125573;29;20055;-81
2024/01/01 17:50:47;;;;;;;66.27;31.57;;;;;;;;;;10114953;29;20044;-80
2024/01/01 17:55:49;;;;;;;72.27;36.63;;;;;;;;;;10120131;29;20072;-84
2024/01/01 18:00:50;;;;;;;82.93;38.70;;;;;;;;;;10126994;29;20639;-81
2024/01/01 18:05:51;;;;;;;64.90;32.77;;;;;;;;;;10099773;29;20092;-84
2024/01/01 18:10:52;;;;;;;73.03;33.10;;;;;;;;;;10096711;29;20044;-80
2024/01/01 18:15:53;;;;;;;65.63;30.47;;;;;;;;;;10115486;29;20071;-80
2024/01/01 18:20:54;;;;;;;71.30;34.53;;;;;;;;;;10126400;29;20376;-83
2024/01/01 18:25:56;;;;;;;67.40;32.33;;;;;;;;;;10112234;29;20088;-79
2024/01/01 18:30:57;;;;;;;68.00;32.70;;;;;;;;;;10121428;29;20047;-81
2024/01/01 18:35:59;;;;;;;67.20;33.33;;;;;;;;;;10117951;29;20401;-82
2024/01/01 18:41:01;;;;;;;71.37;34.20;;;;;;;;;;10122451;29;20032;-80
2024/01/01 18:46:06;;;;;;;58.67;27.67;;;;;;;;;;10124626;29;20044;-86
2024/01/01 18:51:08;;;;;;;60.47;29.23;;;;;;;;;;10122898;29;20390;-80
2024/01/01 18:56:09;;;;;;;60.80;27.80;;;;;;;;;;10113826;29;20885;-81
2024/01/01 19:01:10;;;;;;;63.53;27.17;;;;;;;;;;10101898;29;20029;-79
2024/01/01 19:06:14;;;;;;;63.63;27.73;;;;;;;;;;10105043;29;20025;-80
2024/01/01 19:11:15;;;;;;;102.13;43.63;;;;;;;;;;10107065;29;20066;-82
2024/01/01 19:16:17;;;;;;;87.17;43.07;;;;;;;;;;10115056;29;20044;-79
2024/01/01 19:21:20;;;;;;;60.87;27.60;;;;;;;;;;10117452;29;20394;-80
2024/01/01 19:26:21;;;;;;;58.30;28.20;;;;;;;;;;10118374;29;20032;-80
2024/01/01 19:31:22;;;;;;;57.27;26.30;;;;;;;;;;10123969;29;20185;-81
2024/01/01 19:36:23;;;;;;;55.70;25.93;;;;;;;;;;10102508;29;20139;-79
2024/01/01 19:41:24;;;;;;;56.37;26.30;;;;;;;;;;10124514;29;20080;-81
2024/01/01 19:46:31;;;;;;;53.83;24.57;;;;;;;;;;10124821;29;20049;-79
2024/01/01 19:51:32;;;;;;;54.90;24.20;;;;;;;;;;10123821;29;20049;-79
2024/01/01 19:56:34;;;;;;;47.37;23.37;;;;;;;;;;10123623;29;20067;-82
2024/01/01 20:01:42;;;;;;;48.70;22.67;;;;;;;;;;10106767;29;20067;-84
2024/01/01 20:06:44;;;;;;;49.20;23.87;;;;;;;;;;10124569;29;20037;-81
2024/01/01 20:11:45;;;;;;;50.10;22.43;;;;;;;;;;10130543;29;20033;-79
2024/01/01 20:16:46;;;;;;;42.93;21.33;;;;;;;;;;10131117;29;20072;-79
2024/01/01 20:21:47;;;;;;;53.60;27.77;;;;;;;;;;10130100;29;20164;-79
2024/01/01 20:26:48;;;;;;;50.10;23.73;;;;;;;;;;10130000;29;20064;-83
2024/01/01 20:31:49;;;;;;;57.40;27.57;;;;;;;;;;10130361;29;20037;-80
2024/01/01 20:36:56;;;;;;;51.27;26.07;;;;;;;;;;10130158;29;20112;-83
2024/01/01 20:41:58;;;;;;;81.27;34.73;;;;;;;;;;10130006;29;20516;-80
2024/01/01 20:46:58;;;;;;;66.73;30.63;;;;;;;;;;10123942;29;20040;-80
2024/01/01 20:52:00;;;;;;;90.53;36.60;;;;;;;;;;10129348;29;20050;-79
2024/01/01 20:57:01;;;;;;;63.23;27.37;;;;;;;;;;10128706;29;20497;-80
2024/01/01 21:02:02;;;;;;;49.47;22.50;;;;;;;;;;10129256;29;20032;-79
2024/01/01 21:07:03;;;;;;;45.23;21.07;;;;;;;;;;10129060;29;20120;-81
2024/01/01 21:12:04;;;;;;;51.73;22.73;;;;;;;;;;10128369;29;20036;-80
2024/01/01 21:17:05;;;;;;;49.53;21.47;;;;;;;;;;10111059;29;20032;-81
2024/01/01 21:22:06;;;;;;;47.07;21.77;;;;;;;;;;10127569;29;20036;-80
2024/01/01 21:27:07;;;;;;;48.93;19.33;;;;;;;;;;10127911;29;20113;-80
2024/01/01 21:32:15;;;;;;;58.97;23.93;;;;;;;;;;10127964;29;20048;-80
2024/01/01 21:37:16;;;;;;;56.27;25.17;;;;;;;;;;10127626;29;20067;-85
2024/01/01 21:42:17;;;;;;;56.70;24.73;;;;;;;;;;10127505;29;20040;-80
2024/01/01 21:47:18;;;;;;;58.93;25.20;;;;;;;;;;10126929;29;20036;-81
2024/01/01 21:52:19;;;;;;;60.57;23.17;;;;;;;;;;10127812;29;20659;-80
2024/01/01 21:57:21;;;;;;;45.97;20.07;;;;;;;;;;10127221;29;20080;-83
2024/01/01 22:02:26;;;;;;;43.57;18.37;;;;;;;;;;10109346;29;20420;-83
2024/01/01 22:07:27;;;;;;;42.90;18.95;;;;;;;;;;10125506;29;20033;-79
2024/01/01 22:12:28;;;;;;;47.07;19.80;;;;;;;;;;10126375;29;20042;-82
2024/01/01 22:17:29;;;;;;;53.73;22.47;;;;;;;;;;10126152;29;20036;-80
2024/01/01 22:22:31;;;;;;;61.93;24.83;;;;;;;;;;10113717;29;20556;-80
2024/01/01 22:27:32;;;;;;;45.43;20.23;;;;;;;;;;10126133;29;20039;-82
2024/01/01 22:32:33;;;;;;;45.23;20.13;;;;;;;;;;10108087;29;20044;-78
2024/01/01 22:37:34;;;;;;;37.77;15.23;;;;;;;;;;10126920;29;20616;-81
2024/01/01 22:42:35;;;;;;;46.33;19.93;;;;;;;;;;10126199;29;20064;-80
2024/01/01 22:47:36;;;;;;;35.20;15.93;;;;;;;;;;10126338;29;20044;-82
2024/01/01 22:52:37;;;;;;;34.70;13.63;;;;;;;;;;10125075;29;20404;-80
2024/01/01 22:57:38;;;;;;;31.57;13.97;;;;;;;;;;10124107;29;20056;-80
2024/01/01 23:02:39;;;;;;;35.23;15.90;;;;;;;;;;10125516;29;20041;-79
2024/01/01 23:07:40;;;;;;;36.57;16.07;;;;;;;;;;10124714;29;20615;-79
2024/01/01 23:12:41;;;;;;;28.67;14.03;;;;;;;;;;10125030;29;20446;-82
2024/01/01 23:17:42;;;;;;;30.23;13.60;;;;;;;;;;10125539;29;20080;-79
2024/01/01 23:22:43;;;;;;;33.03;13.20;;;;;;;;;;10124378;29;20036;-82
2024/01/01 23:27:44;;;;;;;32.23;15.77;;;;;;;;;;10107402;29;20040;-82
2024/01/01 23:32:45;;;;;;;30.57;14.27;;;;;;;;;;10123694;29;20052;-82
2024/01/01 23:37:46;;;;;;;25.40;12.47;;;;;;;;;;10124928;29;20028;-80
2024/01/01 23:42:47;;;;;;;31.43;12.80;;;;;;;;;;10126811;29;20103;-83
2024/01/01 23:47:50;;;;;;;32.43;12.97;;;;;;;;;;10132218;29;20172;-85
2024/01/01 23:52:51;;;;;;;28.43;12.23;;;;;;;;;;10131684;29;20099;-79
2024/01/01 23:57:52;;;;;;;27.13;11.87;;;;;;;;;;10131392;29;20066;-83
